sensor_id;sensor_type;location;lat;lon;timestamp;pressure;altitude;pressure_sealevel;temperature;humidity
3206;BME280;1615;53.602;11.418;2023-05-29T00:01:22;101725.84;;;13.43;100.00
3206;BME280;1615;53.602;11.418;2023-05-29T00:03:49;101772.91;;;13.80;100.00
3206;BME280;1615;53.602;11.418;2023-05-29T00:06:14;101701.94;;;13.38;100.00
3206;BME280;1615;53.602;11.418;2023-05-29T00:08:40;101775.63;;;13.85;100.00
3206;BME280;1615;53.602;11.418;2023-05-29T00:11:05;101782.91;;;13.76;100.00
3206;BME280;1615;53.602;11.418;2023-05-29T00:13:31;101771.97;;;13.66;100.00
3206;BME280;1615;53.602;11.418;2023-05-29T00:15:56;101771.38;;;13.69;100.00
3206;BME280;1615;53.602;11.418;2023-05-29T00:18:22;101785.78;;;13.61;100.00
3206;BME280;1615;53.602;11.418;2023-05-29T00:20:47;101773.13;;;13.60;100.00
3206;BME280;1615;53.602;11.418;2023-05-29T00:23:13;101773.44;;;13.53;100.00
3206;BME280;1615;53.602;11.418;2023-05-29T00:25:38;101779.28;;;13.47;100.00
3206;BME280;1615;53.602;11.418;2023-05-29T00:28:07;101773.84;;;13.37;100.00
3206;BME280;1615;53.602;11.418;2023-05-29T00:30:32;101798.28;;;13.48;100.00
3206;BME280;1615;53.602;11.418;2023-05-29T00:32:58;101788.03;;;13.54;100.00
3206;BME280;1615;53.602;11.418;2023-05-29T00:35:24;101796.91;;;13.46;100.00
3206;BME280;1615;53.602;11.418;2023-05-29T00:37:49;101800.81;;;13.40;100.00
3206;BME280;1615;53.602;11.418;2023-05-29T00:40:14;101733.06;;;13.05;100.00
3206;BME280;1615;53.602;11.418;2023-05-29T00:42:40;101796.63;;;13.47;100.00
3206;BME280;1615;53.602;11.418;2023-05-29T00:45:05;101805.25;;;13.36;100.00
3206;BME280;1615;53.602;11.418;2023-05-29T00:47:31;101809.72;;;13.27;100.00
3206;BME280;1615;53.602;11.418;2023-05-29T00:49:57;101652.91;;;12.20;100.00
3206;BME280;1615;53.602;11.418;2023-05-29T00:52:23;101818.31;;;13.20;100.00
3206;BME280;1615;53.602;11.418;2023-05-29T00:54:50;101820.16;;;13.35;100.00
3206;BME280;1615;53.602;11.418;2023-05-29T00:57:17;101826.78;;;13.29;100.00
3206;BME280;1615;53.602;11.418;2023-05-29T00:59:44;101816.97;;;13.18;100.00
3206;BME280;1615;53.602;11.418;2023-05-29T01:02:11;101837.75;;;13.39;100.00
3206;BME280;1615;53.602;11.418;2023-05-29T01:04:37;101835.69;;;13.11;100.00
3206;BME280;1615;53.602;11.418;2023-05-29T01:07:03;101797.31;;;12.81;100.00
3206;BME280;1615;53.602;11.418;2023-05-29T01:09:29;101822.84;;;12.96;100.00
3206;BME280;1615;53.602;11.418;2023-05-29T01:14:29;101833.31;;;12.99;100.00
3206;BME280;1615;53.602;11.418;2023-05-29T01:17:11;101831.09;;;12.96;100.00
3206;BME280;1615;53.602;11.418;2023-05-29T01:20:34;101835.66;;;13.16;100.00
3206;BME280;1615;53.602;11.418;2023-05-29T01:28:33;101836.31;;;13.03;100.00
3206;BME280;1615;53.602;11.418;2023-05-29T01:31:02;101840.06;;;13.17;100.00
3206;BME280;1615;53.602;11.418;2023-05-29T01:33:29;101795.09;;;12.83;100.00
3206;BME280;1615;53.602;11.418;2023-05-29T01:35:54;101831.59;;;13.08;100.00
3206;BME280;1615;53.602;11.418;2023-05-29T01:38:19;101837.09;;;13.08;100.00
3206;BME280;1615;53.602;11.418;2023-05-29T01:40:45;101831.31;;;13.10;100.00
3206;BME280;1615;53.602;11.418;2023-05-29T01:43:12;101836.50;;;13.16;100.00
3206;BME280;1615;53.602;11.418;2023-05-29T01:45:38;101845.88;;;13.15;100.00
3206;BME280;1615;53.602;11.418;2023-05-29T01:48:04;101848.88;;;13.19;100.00
3206;BME280;1615;53.602;11.418;2023-05-29T01:50:30;101846.09;;;13.24;100.00
3206;BME280;1615;53.602;11.418;2023-05-29T01:52:56;101842.78;;;13.22;100.00
3206;BME280;1615;53.602;11.418;2023-05-29T01:55:21;101841.13;;;13.26;100.00
3206;BME280;1615;53.602;11.418;2023-05-29T01:57:46;101835.91;;;13.24;100.00
3206;BME280;1615;53.602;11.418;2023-05-29T02:00:13;101785.69;;;12.89;100.00
3206;BME280;1615;53.602;11.418;2023-05-29T02:02:40;101841.13;;;13.26;100.00
3206;BME280;1615;53.602;11.418;2023-05-29T02:05:06;101842.25;;;13.25;100.00
3206;BME280;1615;53.602;11.418;2023-05-29T02:07:32;101840.34;;;13.20;100.00
3206;BME280;1615;53.602;11.418;2023-05-29T02:09:57;101840.66;;;13.14;100.00
3206;BME280;1615;53.602;11.418;2023-05-29T02:12:22;101835.69;;;13.11;100.00
3206;BME280;1615;53.602;11.418;2023-05-29T02:14:48;101837.94;;;13.09;100.00
3206;BME280;1615;53.602;11.418;2023-05-29T02:17:13;101836.84;;;12.95;100.00
3206;BME280;1615;53.602;11.418;2023-05-29T02:19:40;101830.81;;;12.98;100.00
3206;BME280;1615;53.602;11.418;2023-05-29T02:22:05;101834.72;;;12.87;100.00
3206;BME280;1615;53.602;11.418;2023-05-29T02:24:30;101844.06;;;12.86;100.00
3206;BME280;1615;53.602;11.418;2023-05-29T02:26:56;101835.84;;;12.81;100.00
3206;BME280;1615;53.602;11.418;2023-05-29T02:29:21;101829.75;;;12.84;100.00
3206;BME280;1615;53.602;11.418;2023-05-29T02:31:46;101837.47;;;12.87;100.00
3206;BME280;1615;53.602;11.418;2023-05-29T02:34:12;101853.69;;;12.88;100.00
3206;BME280;1615;53.602;11.418;2023-05-29T02:36:37;101840.22;;;12.87;100.00
3206;BME280;1615;53.602;11.418;2023-05-29T02:39:04;101754.09;;;12.28;100.00
3206;BME280;1615;53.602;11.418;2023-05-29T02:41:30;101845.16;;;12.85;100.00
3206;BME280;1615;53.602;11.418;2023-05-29T02:43:55;101846.31;;;12.74;100.00
3206;BME280;1615;53.602;11.418;2023-05-29T02:46:21;101848.00;;;12.65;100.00
3206;BME280;1615;53.602;11.418;2023-05-29T02:48:47;101848.56;;;12.62;100.00
3206;BME280;1615;53.602;11.418;2023-05-29T02:51:12;101851.88;;;12.64;100.00
3206;BME280;1615;53.602;11.418;2023-05-29T02:53:38;101850.19;;;12.63;100.00
3206;BME280;1615;53.602;11.418;2023-05-29T02:56:03;101854.03;;;12.67;100.00
3206;BME280;1615;53.602;11.418;2023-05-29T02:58:29;101848.03;;;12.55;100.00
3206;BME280;1615;53.602;11.418;2023-05-29T03:00:54;101846.66;;;12.62;100.00
3206;BME280;1615;53.602;11.418;2023-05-29T03:03:19;101853.28;;;12.56;100.00
3206;BME280;1615;53.602;11.418;2023-05-29T03:05:45;101860.72;;;12.46;100.00
3206;BME280;1615;53.602;11.418;2023-05-29T03:08:12;101860.19;;;12.39;100.00
3206;BME280;1615;53.602;11.418;2023-05-29T03:10:37;101849.69;;;12.51;100.00
3206;BME280;1615;53.602;11.418;2023-05-29T03:13:03;101870.06;;;12.45;100.00
3206;BME280;1615;53.602;11.418;2023-05-29T03:15:28;101863.44;;;12.51;100.00
3206;BME280;1615;53.602;11.418;2023-05-29T03:17:54;101867.03;;;12.46;100.00
3206;BME280;1615;53.602;11.418;2023-05-29T03:20:19;101869.22;;;12.44;100.00
3206;BME280;1615;53.602;11.418;2023-05-29T03:22:45;101831.63;;;12.25;100.00
3206;BME280;1615;53.602;11.418;2023-05-29T03:25:10;101870.59;;;12.52;100.00
3206;BME280;1615;53.602;11.418;2023-05-29T03:27:36;101869.53;;;12.48;100.00
3206;BME280;1615;53.602;11.418;2023-05-29T03:30:01;101876.41;;;12.45;100.00
3206;BME280;1615;53.602;11.418;2023-05-29T03:32:27;101874.75;;;12.39;100.00
3206;BME280;1615;53.602;11.418;2023-05-29T03:34:53;101876.41;;;12.45;100.00
3206;BME280;1615;53.602;11.418;2023-05-29T03:37:18;101873.91;;;12.54;100.00
3206;BME280;1615;53.602;11.418;2023-05-29T03:39:44;101859.09;;;12.35;100.00
3206;BME280;1615;53.602;11.418;2023-05-29T03:42:09;101767.91;;;11.88;100.00
3206;BME280;1615;53.602;11.418;2023-05-29T03:44:35;101868.38;;;12.64;100.00
3206;BME280;1615;53.602;11.418;2023-05-29T03:47:00;101867.53;;;12.63;100.00
3206;BME280;1615;53.602;11.418;2023-05-29T03:49:25;101867.84;;;12.57;100.00
3206;BME280;1615;53.602;11.418;2023-05-29T03:51:51;101892.31;;;12.58;100.00
3206;BME280;1615;53.602;11.418;2023-05-29T03:54:16;101881.03;;;12.65;100.00
3206;BME280;1615;53.602;11.418;2023-05-29T03:56:42;101874.16;;;12.57;100.00
3206;BME280;1615;53.602;11.418;2023-05-29T03:59:08;101855.19;;;12.56;100.00
3206;BME280;1615;53.602;11.418;2023-05-29T04:01:33;101874.44;;;12.61;100.00
3206;BME280;1615;53.602;11.418;2023-05-29T04:03:59;101879.38;;;12.64;100.00
3206;BME280;1615;53.602;11.418;2023-05-29T04:06:24;101854.94;;;12.52;100.00
3206;BME280;1615;53.602;11.418;2023-05-29T04:08:50;101876.66;;;12.54;100.00
3206;BME280;1615;53.602;11.418;2023-05-29T04:11:16;101883.75;;;12.70;100.00
3206;BME280;1615;53.602;11.418;2023-05-29T04:13:41;101882.09;;;12.69;100.00
3206;BME280;1615;53.602;11.418;2023-05-29T04:16:07;101884.84;;;12.74;100.00
3206;BME280;1615;53.602;11.418;2023-05-29T04:18:32;101886.78;;;12.68;100.00
3206;BME280;1615;53.602;11.418;2023-05-29T04:20:57;101886.50;;;12.75;100.00
3206;BME280;1615;53.602;11.418;2023-05-29T04:23:23;101851.31;;;12.57;100.00
3206;BME280;1615;53.602;11.418;2023-05-29T04:25:48;101885.91;;;12.83;100.00
3206;BME280;1615;53.602;11.418;2023-05-29T04:28:16;101883.13;;;12.88;100.00
3206;BME280;1615;53.602;11.418;2023-05-29T04:30:42;101888.09;;;12.96;100.00
3206;BME280;1615;53.602;11.418;2023-05-29T04:33:07;101892.19;;;13.03;100.00
3206;BME280;1615;53.602;11.418;2023-05-29T04:35:34;101886.59;;;13.18;100.00
3206;BME280;1615;53.602;11.418;2023-05-29T04:38:00;101891.25;;;13.28;100.00
3206;BME280;1615;53.602;11.418;2023-05-29T04:40:26;101901.13;;;13.34;100.00
3206;BME280;1615;53.602;11.418;2023-05-29T04:42:51;101884.03;;;13.37;100.00
3206;BME280;1615;53.602;11.418;2023-05-29T04:45:19;101887.34;;;13.39;100.00
3206;BME280;1615;53.602;11.418;2023-05-29T04:47:45;101897.75;;;13.42;100.00
3206;BME280;1615;53.602;11.418;2023-05-29T04:50:14;101899.28;;;13.63;100.00
3206;BME280;1615;53.602;11.418;2023-05-29T04:52:39;101900.38;;;13.67;100.00
3206;BME280;1615;53.602;11.418;2023-05-29T04:55:05;101750.47;;;12.96;100.00
3206;BME280;1615;53.602;11.418;2023-05-29T04:57:31;101885.81;;;13.95;100.00
3206;BME280;1615;53.602;11.418;2023-05-29T04:59:56;101904.50;;;14.03;100.00
3206;BME280;1615;53.602;11.418;2023-05-29T05:02:21;101903.59;;;14.12;100.00
3206;BME280;1615;53.602;11.418;2023-05-29T05:04:47;101903.19;;;14.29;100.00
3206;BME280;1615;53.602;11.418;2023-05-29T05:07:13;101901.25;;;14.29;100.00
3206;BME280;1615;53.602;11.418;2023-05-29T05:09:41;101903.09;;;14.39;100.00
3206;BME280;1615;53.602;11.418;2023-05-29T05:12:06;101911.69;;;14.61;100.00
3206;BME280;1615;53.602;11.418;2023-05-29T05:14:32;101906.66;;;14.68;100.00
3206;BME280;1615;53.602;11.418;2023-05-29T05:16:57;101906.91;;;14.71;100.00
3206;BME280;1615;53.602;11.418;2023-05-29T05:19:22;101905.94;;;14.81;100.00
3206;BME280;1615;53.602;11.418;2023-05-29T05:21:47;101905.50;;;14.97;100.00
3206;BME280;1615;53.602;11.418;2023-05-29T05:24:13;101904.88;;;15.00;100.00
3206;BME280;1615;53.602;11.418;2023-05-29T05:26:38;101911.81;;;14.98;100.00
3206;BME280;1615;53.602;11.418;2023-05-29T05:29:03;101904.53;;;15.07;100.00
3206;BME280;1615;53.602;11.418;2023-05-29T05:31:29;101905.41;;;15.26;100.00
3206;BME280;1615;53.602;11.418;2023-05-29T05:33:54;101852.56;;;14.67;100.00
3206;BME280;1615;53.602;11.418;2023-05-29T05:36:20;101909.09;;;15.16;100.00
3206;BME280;1615;53.602;11.418;2023-05-29T05:38:45;101884.81;;;14.95;100.00
3206;BME280;1615;53.602;11.418;2023-05-29T05:41:11;101899.94;;;15.44;100.00
3206;BME280;1615;53.602;11.418;2023-05-29T05:43:36;101863.97;;;15.26;100.00
3206;BME280;1615;53.602;11.418;2023-05-29T05:46:02;101901.84;;;15.44;100.00
3206;BME280;1615;53.602;11.418;2023-05-29T05:48:27;101904.91;;;15.61;100.00
3206;BME280;1615;53.602;11.418;2023-05-29T05:50:52;101908.09;;;15.86;100.00
3206;BME280;1615;53.602;11.418;2023-05-29T05:53:17;101915.25;;;15.74;100.00
3206;BME280;1615;53.602;11.418;2023-05-29T05:55:43;101914.47;;;15.50;100.00
3206;BME280;1615;53.602;11.418;2023-05-29T05:58:08;101918.59;;;15.71;100.00
3206;BME280;1615;53.602;11.418;2023-05-29T06:00:34;101916.81;;;15.80;100.00
3206;BME280;1615;53.602;11.418;2023-05-29T06:02:59;101920.00;;;15.87;100.00
3206;BME280;1615;53.602;11.418;2023-05-29T06:05:27;101921.56;;;15.56;100.00
3206;BME280;1615;53.602;11.418;2023-05-29T06:07:53;101928.31;;;15.68;100.00
3206;BME280;1615;53.602;11.418;2023-05-29T06:10:18;101921.97;;;15.68;100.00
3206;BME280;1615;53.602;11.418;2023-05-29T06:12:44;101926.66;;;16.04;100.00
3206;BME280;1615;53.602;11.418;2023-05-29T06:15:09;101928.00;;;15.88;100.00
3206;BME280;1615;53.602;11.418;2023-05-29T06:17:35;101921.75;;;16.15;100.00
3206;BME280;1615;53.602;11.418;2023-05-29T06:20:00;101927.19;;;16.20;100.00
3206;BME280;1615;53.602;11.418;2023-05-29T06:22:25;101928.16;;;16.29;100.00
3206;BME280;1615;53.602;11.418;2023-05-29T06:24:51;101929.41;;;16.36;100.00
3206;BME280;1615;53.602;11.418;2023-05-29T06:27:16;101928.88;;;16.02;100.00
3206;BME280;1615;53.602;11.418;2023-05-29T06:29:43;101929.50;;;15.99;100.00
3206;BME280;1615;53.602;11.418;2023-05-29T06:32:08;101927.91;;;16.12;100.00
3206;BME280;1615;53.602;11.418;2023-05-29T06:34:33;101936.31;;;16.39;100.00
3206;BME280;1615;53.602;11.418;2023-05-29T06:36:58;101933.28;;;16.22;100.00
3206;BME280;1615;53.602;11.418;2023-05-29T06:39:24;101934.06;;;16.41;100.00
3206;BME280;1615;53.602;11.418;2023-05-29T06:41:50;101941.09;;;16.33;100.00
3206;BME280;1615;53.602;11.418;2023-05-29T06:44:15;101940.56;;;16.50;100.00
3206;BME280;1615;53.602;11.418;2023-05-29T06:46:40;101944.72;;;16.15;100.00
3206;BME280;1615;53.602;11.418;2023-05-29T06:49:06;101835.00;;;15.60;100.00
3206;BME280;1615;53.602;11.418;2023-05-29T06:51:31;101952.84;;;16.44;100.00
3206;BME280;1615;53.602;11.418;2023-05-29T06:53:57;101950.34;;;16.10;100.00
3206;BME280;1615;53.602;11.418;2023-05-29T06:56:23;101950.09;;;16.44;100.00
3206;BME280;1615;53.602;11.418;2023-05-29T06:58:48;101950.22;;;16.34;100.00
3206;BME280;1615;53.602;11.418;2023-05-29T07:01:13;101950.16;;;16.39;100.00
3206;BME280;1615;53.602;11.418;2023-05-29T07:03:40;101947.31;;;16.44;100.00
3206;BME280;1615;53.602;11.418;2023-05-29T07:06:05;101943.56;;;16.35;100.00
3206;BME280;1615;53.602;11.418;2023-05-29T07:08:31;101945.91;;;16.28;100.00
3206;BME280;1615;53.602;11.418;2023-05-29T07:10:56;101943.22;;;16.23;100.00
3206;BME280;1615;53.602;11.418;2023-05-29T07:13:24;101908.78;;;15.97;100.00
3206;BME280;1615;53.602;11.418;2023-05-29T07:15:50;101887.78;;;15.96;100.00
3206;BME280;1615;53.602;11.418;2023-05-29T07:18:15;101940.78;;;16.67;100.00
3206;BME280;1615;53.602;11.418;2023-05-29T07:20:40;101931.56;;;16.85;100.00
3206;BME280;1615;53.602;11.418;2023-05-29T07:23:06;101939.28;;;16.88;100.00
3206;BME280;1615;53.602;11.418;2023-05-29T07:25:31;101861.59;;;16.39;100.00
3206;BME280;1615;53.602;11.418;2023-05-29T07:27:57;101943.19;;;16.87;100.00
3206;BME280;1615;53.602;11.418;2023-05-29T07:30:23;101939.78;;;16.90;100.00
3206;BME280;1615;53.602;11.418;2023-05-29T07:32:48;101944.81;;;17.15;98.24
3206;BME280;1615;53.602;11.418;2023-05-29T07:35:14;101947.59;;;17.15;99.15
3206;BME280;1615;53.602;11.418;2023-05-29T07:37:39;101949.13;;;16.80;100.00
3206;BME280;1615;53.602;11.418;2023-05-29T07:40:05;101932.59;;;16.89;100.00
3206;BME280;1615;53.602;11.418;2023-05-29T07:42:31;101947.09;;;17.13;100.00
3206;BME280;1615;53.602;11.418;2023-05-29T07:44:57;101942.88;;;17.29;100.00
3206;BME280;1615;53.602;11.418;2023-05-29T07:47:22;101948.63;;;17.32;99.56
3206;BME280;1615;53.602;11.418;2023-05-29T07:49:48;101957.66;;;17.51;99.09
3206;BME280;1615;53.602;11.418;2023-05-29T07:52:13;101958.88;;;17.59;96.63
3206;BME280;1615;53.602;11.418;2023-05-29T07:54:38;101959.22;;;17.93;94.88
3206;BME280;1615;53.602;11.418;2023-05-29T07:57:04;101965.03;;;18.27;95.04
3206;BME280;1615;53.602;11.418;2023-05-29T07:59:34;101942.81;;;18.27;92.03
3206;BME280;1615;53.602;11.418;2023-05-29T08:02:00;101919.09;;;17.99;90.88
3206;BME280;1615;53.602;11.418;2023-05-29T08:04:27;101944.41;;;18.41;93.21
3206;BME280;1615;53.602;11.418;2023-05-29T08:06:53;101956.81;;;18.66;93.10
3206;BME280;1615;53.602;11.418;2023-05-29T08:09:18;101961.75;;;18.25;85.62
3206;BME280;1615;53.602;11.418;2023-05-29T08:11:44;101910.16;;;17.66;84.34
3206;BME280;1615;53.602;11.418;2023-05-29T08:14:14;101914.75;;;17.84;86.88
3206;BME280;1615;53.602;11.418;2023-05-29T08:16:40;101962.16;;;18.32;89.71
3206;BME280;1615;53.602;11.418;2023-05-29T08:19:06;101933.34;;;18.28;86.39
3206;BME280;1615;53.602;11.418;2023-05-29T08:21:31;101908.75;;;18.13;84.93
3206;BME280;1615;53.602;11.418;2023-05-29T08:23:58;101956.03;;;18.43;87.20
3206;BME280;1615;53.602;11.418;2023-05-29T08:26:23;101950.47;;;18.65;87.40
3206;BME280;1615;53.602;11.418;2023-05-29T08:28:48;101857.53;;;17.97;85.16
3206;BME280;1615;53.602;11.418;2023-05-29T08:31:15;101961.88;;;18.94;85.51
3206;BME280;1615;53.602;11.418;2023-05-29T08:33:40;101954.41;;;19.03;81.52
3206;BME280;1615;53.602;11.418;2023-05-29T08:36:06;101956.91;;;19.13;79.89
3206;BME280;1615;53.602;11.418;2023-05-29T08:38:31;101963.25;;;19.14;78.00
3206;BME280;1615;53.602;11.418;2023-05-29T08:40:57;101960.47;;;18.75;73.12
3206;BME280;1615;53.602;11.418;2023-05-29T08:43:29;101919.47;;;18.50;74.26
3206;BME280;1615;53.602;11.418;2023-05-29T08:45:59;101963.59;;;18.82;72.81
3206;BME280;1615;53.602;11.418;2023-05-29T08:48:27;101952.53;;;18.90;74.70
3206;BME280;1615;53.602;11.418;2023-05-29T08:50:54;101960.34;;;19.19;73.26
3206;BME280;1615;53.602;11.418;2023-05-29T08:53:21;101962.41;;;18.96;71.82
3206;BME280;1615;53.602;11.418;2023-05-29T08:55:47;101968.28;;;18.95;71.79
3206;BME280;1615;53.602;11.418;2023-05-29T08:58:14;101963.25;;;19.14;72.58
3206;BME280;1615;53.602;11.418;2023-05-29T09:00:40;101963.63;;;19.21;71.30
3206;BME280;1615;53.602;11.418;2023-05-29T09:03:06;101966.09;;;19.22;68.74
3206;BME280;1615;53.602;11.418;2023-05-29T09:05:32;101942.44;;;18.64;67.53
3206;BME280;1615;53.602;11.418;2023-05-29T09:07:57;101967.66;;;18.76;66.32
3206;BME280;1615;53.602;11.418;2023-05-29T09:10:24;101970.22;;;18.64;71.02
3206;BME280;1615;53.602;11.418;2023-05-29T09:12:50;101964.78;;;18.59;74.43
3206;BME280;1615;53.602;11.418;2023-05-29T09:15:21;101964.56;;;18.77;71.04
3206;BME280;1615;53.602;11.418;2023-05-29T09:17:57;101972.06;;;18.99;73.05
3206;BME280;1615;53.602;11.418;2023-05-29T09:20:24;101977.31;;;18.48;67.27
3206;BME280;1615;53.602;11.418;2023-05-29T09:22:57;101971.88;;;18.43;66.53
3206;BME280;1615;53.602;11.418;2023-05-29T09:25:24;101871.03;;;17.90;67.78
3206;BME280;1615;53.602;11.418;2023-05-29T09:28:03;101979.66;;;18.32;66.00
3206;BME280;1615;53.602;11.418;2023-05-29T09:30:43;101909.78;;;17.59;59.78
3206;BME280;1615;53.602;11.418;2023-05-29T09:33:11;101981.56;;;18.10;59.23
3206;BME280;1615;53.602;11.418;2023-05-29T09:35:41;101926.38;;;17.73;60.77
3206;BME280;1615;53.602;11.418;2023-05-29T09:38:08;101970.59;;;18.27;59.89
3206;BME280;1615;53.602;11.418;2023-05-29T09:40:36;101983.63;;;18.04;62.26
3206;BME280;1615;53.602;11.418;2023-05-29T09:43:12;101938.06;;;17.83;60.28
3206;BME280;1615;53.602;11.418;2023-05-29T09:45:38;101967.09;;;17.99;59.88
3206;BME280;1615;53.602;11.418;2023-05-29T09:48:05;101982.03;;;17.90;56.43
3206;BME280;1615;53.602;11.418;2023-05-29T09:50:31;101975.06;;;17.79;60.05
3206;BME280;1615;53.602;11.418;2023-05-29T09:52:59;101990.63;;;18.02;59.76
3206;BME280;1615;53.602;11.418;2023-05-29T09:55:27;101985.44;;;18.22;63.52
3206;BME280;1615;53.602;11.418;2023-05-29T09:57:54;101983.47;;;18.45;59.37
3206;BME280;1615;53.602;11.418;2023-05-29T10:00:20;101959.97;;;18.07;54.75
3206;BME280;1615;53.602;11.418;2023-05-29T10:02:47;102000.81;;;18.28;56.89
3206;BME280;1615;53.602;11.418;2023-05-29T10:05:13;101981.56;;;18.10;53.01
3206;BME280;1615;53.602;11.418;2023-05-29T10:07:44;101984.44;;;18.05;53.69
3206;BME280;1615;53.602;11.418;2023-05-29T10:10:12;101971.06;;;18.07;52.40
3206;BME280;1615;53.602;11.418;2023-05-29T10:12:38;101988.06;;;18.41;52.98
3206;BME280;1615;53.602;11.418;2023-05-29T10:15:12;101985.88;;;18.38;51.66
3206;BME280;1615;53.602;11.418;2023-05-29T10:17:39;101974.97;;;18.41;54.77
3206;BME280;1615;53.602;11.418;2023-05-29T10:20:10;101952.56;;;18.38;55.24
3206;BME280;1615;53.602;11.418;2023-05-29T10:22:45;101789.88;;;17.27;56.71
3206;BME280;1615;53.602;11.418;2023-05-29T10:25:13;101993.06;;;18.61;57.97
3206;BME280;1615;53.602;11.418;2023-05-29T10:27:38;101985.63;;;18.70;56.89
3206;BME280;1615;53.602;11.418;2023-05-29T10:35:40;101921.88;;;18.43;58.33
3206;BME280;1615;53.602;11.418;2023-05-29T10:38:12;101985.97;;;18.77;58.43
3206;BME280;1615;53.602;11.418;2023-05-29T10:40:43;101899.63;;;17.90;58.61
3206;BME280;1615;53.602;11.418;2023-05-29T10:43:32;101976.94;;;18.41;56.80
3206;BME280;1615;53.602;11.418;2023-05-29T10:45:58;101952.91;;;18.23;51.19
3206;BME280;1615;53.602;11.418;2023-05-29T10:50:54;101952.69;;;18.33;46.60
3206;BME280;1615;53.602;11.418;2023-05-29T10:53:25;101974.41;;;18.53;47.84
3206;BME280;1615;53.602;11.418;2023-05-29T10:55:52;101894.38;;;18.11;46.33
3206;BME280;1615;53.602;11.418;2023-05-29T10:58:25;101964.31;;;18.57;45.29
3206;BME280;1615;53.602;11.418;2023-05-29T11:00:52;101962.72;;;18.64;45.60
3206;BME280;1615;53.602;11.418;2023-05-29T11:11:12;101959.00;;;18.47;55.36
3206;BME280;1615;53.602;11.418;2023-05-29T11:13:38;101963.03;;;18.63;52.94
3206;BME280;1615;53.602;11.418;2023-05-29T11:18:46;101957.22;;;18.73;50.49
3206;BME280;1615;53.602;11.418;2023-05-29T11:21:49;101962.00;;;18.59;50.07
3206;BME280;1615;53.602;11.418;2023-05-29T11:24:23;101948.91;;;18.51;49.72
3206;BME280;1615;53.602;11.418;2023-05-29T11:26:54;101949.53;;;18.48;50.18
3206;BME280;1615;53.602;11.418;2023-05-29T11:29:23;101933.88;;;18.52;51.08
3206;BME280;1615;53.602;11.418;2023-05-29T11:32:02;101950.91;;;18.59;50.87
3206;BME280;1615;53.602;11.418;2023-05-29T11:34:29;101941.97;;;18.40;49.24
3206;BME280;1615;53.602;11.418;2023-05-29T11:36:59;101941.59;;;18.33;48.96
3206;BME280;1615;53.602;11.418;2023-05-29T11:39:25;101951.59;;;18.42;49.53
3206;BME280;1615;53.602;11.418;2023-05-29T11:41:51;101925.53;;;18.30;50.83
3206;BME280;1615;53.602;11.418;2023-05-29T11:44:17;101856.41;;;17.98;50.22
3206;BME280;1615;53.602;11.418;2023-05-29T11:46:43;101951.91;;;18.63;50.00
3206;BME280;1615;53.602;11.418;2023-05-29T11:49:08;101951.91;;;18.63;47.42
3206;BME280;1615;53.602;11.418;2023-05-29T11:51:33;101960.75;;;18.65;48.12
3206;BME280;1615;53.602;11.418;2023-05-29T11:53:59;101961.75;;;18.69;47.00
3206;BME280;1615;53.602;11.418;2023-05-29T11:56:28;101959.88;;;18.56;46.83
3206;BME280;1615;53.602;11.418;2023-05-29T11:58:55;101909.47;;;18.40;47.64
3206;BME280;1615;53.602;11.418;2023-05-29T12:01:22;101957.84;;;18.70;46.65
3206;BME280;1615;53.602;11.418;2023-05-29T12:03:49;101955.56;;;18.72;47.11
3206;BME280;1615;53.602;11.418;2023-05-29T12:06:14;101963.56;;;18.73;46.69
3206;BME280;1615;53.602;11.418;2023-05-29T12:08:40;101881.56;;;18.23;45.89
3206;BME280;1615;53.602;11.418;2023-05-29T12:11:06;101970.47;;;18.84;46.27
3206;BME280;1615;53.602;11.418;2023-05-29T12:13:32;101913.78;;;18.55;46.86
3206;BME280;1615;53.602;11.418;2023-05-29T12:15:59;101948.63;;;18.61;47.24
3206;BME280;1615;53.602;11.418;2023-05-29T12:18:27;101961.47;;;18.79;45.48
3206;BME280;1615;53.602;11.418;2023-05-29T12:20:57;101947.81;;;18.91;42.43
3206;BME280;1615;53.602;11.418;2023-05-29T12:23:23;101861.63;;;18.43;43.43
3206;BME280;1615;53.602;11.418;2023-05-29T12:25:51;101943.94;;;19.09;43.53
3206;BME280;1615;53.602;11.418;2023-05-29T12:28:17;101940.03;;;19.10;43.97
3206;BME280;1615;53.602;11.418;2023-05-29T12:30:46;101936.13;;;19.11;42.42
3206;BME280;1615;53.602;11.418;2023-05-29T12:33:33;101940.69;;;19.15;41.35
3206;BME280;1615;53.602;11.418;2023-05-29T12:36:04;101859.81;;;18.78;40.60
3206;BME280;1615;53.602;11.418;2023-05-29T12:38:31;101942.22;;;19.21;41.09
3206;BME280;1615;53.602;11.418;2023-05-29T12:40:57;101931.09;;;19.21;40.19
3206;BME280;1615;53.602;11.418;2023-05-29T12:43:22;101931.56;;;19.15;40.56
3206;BME280;1615;53.602;11.418;2023-05-29T12:45:54;101863.00;;;18.63;40.72
3206;BME280;1615;53.602;11.418;2023-05-29T12:48:20;101933.16;;;19.07;39.58
3206;BME280;1615;53.602;11.418;2023-05-29T12:50:48;101927.16;;;19.22;40.34
3206;BME280;1615;53.602;11.418;2023-05-29T12:53:15;101930.81;;;19.31;42.37
3206;BME280;1615;53.602;11.418;2023-05-29T12:55:43;101930.63;;;19.28;42.90
3206;BME280;1615;53.602;11.418;2023-05-29T12:58:12;101940.31;;;19.39;44.05
3206;BME280;1615;53.602;11.418;2023-05-29T13:00:40;101942.31;;;19.47;44.82
3206;BME280;1615;53.602;11.418;2023-05-29T13:03:06;101904.59;;;19.24;45.07
3206;BME280;1615;53.602;11.418;2023-05-29T13:05:32;101938.19;;;19.36;44.31
3206;BME280;1615;53.602;11.418;2023-05-29T13:07:58;101939.75;;;19.20;44.67
3206;BME280;1615;53.602;11.418;2023-05-29T13:10:24;101938.09;;;19.19;44.50
3206;BME280;1615;53.602;11.418;2023-05-29T13:12:50;101895.47;;;18.93;44.57
3206;BME280;1615;53.602;11.418;2023-05-29T13:15:19;101916.66;;;19.11;44.40
3206;BME280;1615;53.602;11.418;2023-05-29T13:17:44;101829.69;;;18.63;44.79
3206;BME280;1615;53.602;11.418;2023-05-29T13:20:11;101917.13;;;19.13;43.23